Time;durP1;ratioP1;P1;durP2;ratioP2;P2;SDS_P1;SDS_P2;PMS_P1;PMS_P2;Temp;Humidity;BMP_temperature;BMP_pressure;BME280_temperature;BME280_humidity;BME280_pressure;Samples;Min_cycle;Max_cycle;Signal;HPM_P1;HPM_P2
2022/12/13 00:00:43;;;;;;;2.60;2.50;;;-4.70;99.90;;;;;;5076665;28;20445;-69
2022/12/13 00:03:10;;;;;;;6.53;2.97;;;-4.70;99.90;;;;;;5079785;28;20453;-68
2022/12/13 00:05:43;;;;;;;3.93;3.47;;;-4.70;99.90;;;;;;5093622;28;20449;-69
2022/12/13 00:08:10;;;;;;;6.47;5.33;;;-4.80;99.90;;;;;;5086595;28;20454;-68
2022/12/13 00:10:36;;;;;;;6.37;3.67;;;-4.60;99.90;;;;;;5093261;28;20453;-68
2022/12/13 00:13:03;;;;;;;3.83;3.50;;;-4.80;99.90;;;;;;5092807;28;20461;-68
2022/12/13 00:15:30;;;;;;;5.80;2.70;;;-4.80;99.90;;;;;;5080060;28;20476;-69
2022/12/13 00:17:58;;;;;;;3.70;2.77;;;-4.70;99.90;;;;;;5088262;28;20492;-69
2022/12/13 00:20:25;;;;;;;5.67;3.23;;;-4.50;99.90;;;;;;5089930;28;20952;-69
2022/12/13 00:22:52;;;;;;;3.23;2.93;;;-4.60;14.60;;;;;;5092150;28;20806;-68
2022/12/13 00:25:20;;;;;;;5.70;4.20;;;-4.50;68.40;;;;;;5087986;28;20447;-68
2022/12/13 00:27:47;;;;;;;4.80;4.40;;;-4.40;12.40;;;;;;5091040;28;20445;-67
2022/12/13 00:30:14;;;;;;;2.93;2.63;;;-4.40;1.00;;;;;;5088421;28;20449;-68
2022/12/13 00:32:41;;;;;;;3.73;3.43;;;-4.50;99.90;;;;;;5084262;28;20472;-68
2022/12/13 00:35:09;;;;;;;4.00;2.70;;;-4.70;1.00;;;;;;5075767;28;20635;-68
2022/12/13 00:37:36;;;;;;;3.30;3.07;;;-4.70;1.00;;;;;;5092116;28;20499;-68
2022/12/13 00:40:03;;;;;;;4.63;4.07;;;-4.80;1.00;;;;;;5084181;28;20449;-68
2022/12/13 00:42:29;;;;;;;2.73;2.50;;;-4.50;1.00;;;;;;5083026;28;20897;-68
2022/12/13 00:44:56;;;;;;;4.50;3.13;;;-4.50;99.90;;;;;;5078216;28;20955;-68
2022/12/13 00:47:23;;;;;;;4.40;4.00;;;-4.90;1.00;;;;;;5092567;28;20824;-68
2022/12/13 00:49:50;;;;;;;3.70;2.70;;;-4.90;99.90;;;;;;5077543;28;20472;-66
2022/12/13 00:52:18;;;;;;;7.23;4.90;;;-4.70;99.90;;;;;;5081937;28;20452;-68
2022/12/13 00:54:45;;;;;;;2.97;2.70;;;-4.60;1.00;;;;;;5088644;28;20451;-68
2022/12/13 00:57:11;;;;;;;11.47;4.10;;;-4.60;1.00;;;;;;5088457;28;20491;-67
2022/12/13 00:59:38;;;;;;;4.80;3.03;;;-4.70;1.00;;;;;;5089234;28;21030;-68
2022/12/13 01:02:05;;;;;;;3.53;2.80;;;-4.90;1.00;;;;;;5091595;28;20449;-68
2022/12/13 01:04:32;;;;;;;4.87;2.50;;;-4.90;1.00;;;;;;5091715;28;20449;-68
2022/12/13 01:06:59;;;;;;;5.50;5.10;;;-4.70;67.00;;;;;;5082501;28;20457;-68
2022/12/13 01:09:29;;;;;;;7.13;3.53;;;-4.50;1.00;;;;;;5081485;28;20454;-68
2022/12/13 01:11:57;;;;;;;14.83;5.10;;;-4.70;1.00;;;;;;5083287;28;20445;-68
2022/12/13 01:14:24;;;;;;;4.80;4.30;;;-4.80;1.00;;;;;;5085895;28;20450;-68
2022/12/13 01:16:54;;;;;;;3.63;3.33;;;-5.00;1.00;;;;;;5074506;28;20462;-67
2022/12/13 01:19:21;;;;;;;5.97;5.23;;;-5.20;40.20;;;;;;5084050;28;20446;-68
2022/12/13 01:21:48;;;;;;;7.03;5.30;;;-5.30;99.90;;;;;;5084302;28;20487;-66
2022/12/13 01:24:19;;;;;;;9.20;3.93;;;-5.30;99.90;;;;;;5091199;28;20456;-68
2022/12/13 01:26:47;;;;;;;3.83;3.53;;;-5.10;99.90;;;;;;5091992;28;20469;-68
2022/12/13 01:29:14;;;;;;;3.77;3.47;;;-5.20;99.90;;;;;;5090868;28;20442;-67
2022/12/13 01:31:41;;;;;;;6.63;2.60;;;-5.40;99.90;;;;;;5091579;28;20772;-68
2022/12/13 01:34:09;;;;;;;4.03;3.50;;;-5.40;99.90;;;;;;5084451;28;20446;-68
2022/12/13 01:36:36;;;;;;;3.17;2.87;;;-5.40;99.90;;;;;;5078164;28;20450;-68
2022/12/13 01:39:03;;;;;;;2.90;2.70;;;-5.40;99.90;;;;;;5090864;28;20456;-67
2022/12/13 01:41:32;;;;;;;10.40;3.63;;;-5.30;99.90;;;;;;5091626;28;20445;-69
2022/12/13 01:44:02;;;;;;;2.90;2.70;;;-4.90;99.90;;;;;;5082352;28;20446;-69
2022/12/13 01:46:30;;;;;;;9.97;5.93;;;-4.90;99.90;;;;;;5077126;28;20477;-68
2022/12/13 01:49:04;;;;;;;2.67;2.47;;;-5.00;94.80;;;;;;5086491;28;20473;-68
2022/12/13 01:51:36;;;;;;;3.50;2.80;;;-5.00;1.00;;;;;;5091322;28;20450;-69
2022/12/13 01:54:05;;;;;;;3.63;1.87;;;-5.20;26.10;;;;;;5079403;28;20442;-68
2022/12/13 01:56:38;;;;;;;9.57;5.10;;;-5.10;99.90;;;;;;5077807;28;20457;-69
2022/12/13 01:59:08;;;;;;;1.80;1.30;;;-5.00;68.40;;;;;;5090291;28;20928;-68
2022/12/13 02:01:36;;;;;;;3.63;2.60;;;-5.20;1.00;;;;;;5090785;28;20566;-68
2022/12/13 02:04:02;;;;;;;4.50;4.17;;;-5.10;99.90;;;;;;5082587;28;20441;-69
2022/12/13 02:06:34;;;;;;;5.63;4.00;;;-4.80;3.90;;;;;;5091630;28;20465;-70
2022/12/13 02:09:02;;;;;;;2.93;2.70;;;-5.00;1.00;;;;;;5083979;28;20537;-68
2022/12/13 02:11:29;;;;;;;9.63;5.67;;;-5.10;1.00;;;;;;5090892;28;20449;-70
2022/12/13 02:13:56;;;;;;;4.57;4.20;;;-4.90;99.90;;;;;;5077163;28;20461;-69
2022/12/13 02:16:35;;;;;;;1.63;1.43;;;-4.80;99.90;;;;;;5091019;28;20452;-69
2022/12/13 02:19:44;;;;;;;3.73;3.20;;;-4.90;99.90;;;;;;5087439;28;20445;-69
2022/12/13 02:22:29;;;;;;;3.73;3.43;;;-5.10;1.00;;;;;;5089822;28;20456;-68
2022/12/13 02:25:10;;;;;;;7.80;4.20;;;-5.00;1.00;;;;;;5089573;28;20502;-69
2022/12/13 02:27:51;;;;;;;3.57;3.23;;;-4.90;1.00;;;;;;5081395;28;20472;-69
2022/12/13 02:30:29;;;;;;;2.30;2.10;;;-5.00;1.00;;;;;;5090405;28;20453;-68
2022/12/13 02:33:26;;;;;;;8.57;4.70;;;-5.20;1.00;;;;;;5081444;28;20941;-69
2022/12/13 02:36:03;;;;;;;3.20;3.00;;;-5.30;13.80;;;;;;5068212;28;20462;-69
2022/12/13 02:38:38;;;;;;;9.23;5.63;;;-5.50;1.00;;;;;;5080759;28;20484;-70
2022/12/13 02:41:13;;;;;;;3.80;3.03;;;-5.60;99.90;;;;;;5090730;28;20463;-69
2022/12/13 02:43:47;;;;;;;4.40;3.67;;;-5.60;99.90;;;;;;5090821;28;20444;-69
2022/12/13 02:46:20;;;;;;;8.93;5.03;;;-5.70;99.90;;;;;;5091341;28;20454;-69
2022/12/13 02:48:50;;;;;;;7.87;3.20;;;-5.30;99.90;;;;;;5090229;28;20503;-67
2022/12/13 02:51:18;;;;;;;8.03;3.13;;;-5.50;17.40;;;;;;5076902;28;20446;-69
2022/12/13 02:53:46;;;;;;;9.57;3.60;;;-5.40;44.80;;;;;;5079968;28;20799;-69
2022/12/13 02:56:13;;;;;;;4.30;3.90;;;-5.70;1.00;;;;;;5091216;28;20532;-69
2022/12/13 02:58:45;;;;;;;3.07;2.77;;;-5.80;99.90;;;;;;5090788;28;20780;-69
2022/12/13 03:01:33;;;;;;;2.67;2.50;;;-5.80;99.90;;;;;;5090775;28;20488;-69
2022/12/13 03:04:08;;;;;;;7.60;3.67;;;-5.80;99.90;;;;;;5086617;28;20441;-69
2022/12/13 03:06:45;;;;;;;7.70;4.37;;;-5.50;99.90;;;;;;5090583;28;20440;-69
2022/12/13 03:09:25;;;;;;;4.93;4.53;;;-5.20;84.70;;;;;;5082766;28;20547;-69
2022/12/13 03:15:13;;;;;;;2.07;1.97;;;-5.30;1.00;;;;;;5081085;28;20571;-68
2022/12/13 03:17:47;;;;;;;13.03;4.70;;;-5.70;1.00;;;;;;5082932;28;20985;-69
2022/12/13 03:20:17;;;;;;;5.90;3.87;;;-5.90;1.00;;;;;;5090489;28;20451;-68
2022/12/13 03:22:44;;;;;;;2.77;2.60;;;-5.70;99.90;;;;;;5079753;28;20445;-69
2022/12/13 03:25:11;;;;;;;11.10;5.20;;;-5.30;1.00;;;;;;5089343;28;20522;-69
2022/12/13 03:27:38;;;;;;;5.50;2.93;;;-5.20;99.90;;;;;;5090090;28;20468;-69
2022/12/13 03:30:05;;;;;;;2.67;2.53;;;-5.20;99.90;;;;;;5089868;28;20449;-69
2022/12/13 03:32:32;;;;;;;5.20;4.17;;;-5.50;99.90;;;;;;5087076;28;20456;-69
2022/12/13 03:35:00;;;;;;;6.10;4.40;;;-5.30;99.90;;;;;;5075870;28;20450;-68
2022/12/13 03:37:27;;;;;;;8.43;6.00;;;-5.20;3.60;;;;;;5085705;28;20449;-68
2022/12/13 03:39:54;;;;;;;7.07;3.90;;;-5.10;1.00;;;;;;5079672;28;20449;-68
2022/12/13 03:42:21;;;;;;;7.13;2.90;;;-5.00;1.00;;;;;;5079387;28;20493;-69
2022/12/13 03:44:48;;;;;;;17.63;6.80;;;-4.90;99.90;;;;;;5087289;28;20445;-68
2022/12/13 03:47:16;;;;;;;4.40;3.17;;;-5.30;99.90;;;;;;5093073;28;20496;-68
2022/12/13 03:49:43;;;;;;;2.40;1.90;;;-5.50;1.00;;;;;;5093017;28;20489;-69
2022/12/13 03:52:11;;;;;;;4.40;3.50;;;-5.70;99.90;;;;;;5093149;28;20629;-69
2022/12/13 03:54:38;;;;;;;5.60;3.13;;;-5.80;99.90;;;;;;5093698;28;20449;-69
2022/12/13 03:57:04;;;;;;;4.97;4.43;;;-5.90;1.00;;;;;;5083802;28;20945;-69
2022/12/13 03:59:31;;;;;;;4.83;4.43;;;-5.80;1.00;;;;;;5077789;28;20442;-69
2022/12/13 04:01:58;;;;;;;2.87;2.60;;;-5.30;1.00;;;;;;5093053;28;20453;-70
2022/12/13 04:04:25;;;;;;;10.60;3.40;;;-5.40;99.90;;;;;;5093806;28;20449;-69
2022/12/13 04:06:51;;;;;;;2.33;2.23;;;-5.20;99.90;;;;;;5077387;28;20465;-68
2022/12/13 04:09:19;;;;;;;8.07;6.80;;;-5.30;99.90;;;;;;5078866;28;20454;-68
2022/12/13 04:14:31;;;;;;;3.53;3.23;;;-5.80;99.90;;;;;;5093621;28;20448;-69
2022/12/13 04:16:59;;;;;;;4.93;2.27;;;-5.90;99.90;;;;;;5093233;28;20554;-68
2022/12/13 04:19:25;;;;;;;5.60;3.13;;;-5.70;99.90;;;;;;5093247;28;20467;-69
2022/12/13 04:21:53;;;;;;;7.17;4.13;;;-6.00;99.90;;;;;;5092931;28;20445;-68
2022/12/13 04:24:22;;;;;;;3.07;2.77;;;-5.90;1.00;;;;;;5093465;28;20839;-68
2022/12/13 04:26:48;;;;;;;5.80;5.30;;;-5.60;1.00;;;;;;5093021;28;20454;-67
2022/12/13 04:29:15;;;;;;;5.17;4.70;;;-5.30;1.00;;;;;;5093302;28;20805;-68
2022/12/13 04:31:42;;;;;;;2.17;1.97;;;-5.40;99.90;;;;;;5093416;28;20959;-68
2022/12/13 04:34:09;;;;;;;8.20;4.20;;;-5.80;99.90;;;;;;5092145;28;20962;-68
2022/12/13 04:36:36;;;;;;;5.07;3.90;;;-5.90;99.90;;;;;;5091258;28;20936;-68
2022/12/13 04:39:03;;;;;;;8.83;4.00;;;-5.50;99.90;;;;;;5088118;28;20453;-68
2022/12/13 04:41:35;;;;;;;2.20;2.03;;;-5.50;1.00;;;;;;5084525;28;20448;-68
2022/12/13 04:44:03;;;;;;;1.67;1.57;;;-5.60;99.90;;;;;;5075973;28;20456;-68
2022/12/13 04:46:30;;;;;;;2.13;2.03;;;-5.70;99.90;;;;;;5086089;28;20468;-68
2022/12/13 04:48:57;;;;;;;8.70;3.43;;;-5.90;1.00;;;;;;5080385;28;20493;-68
2022/12/13 04:51:24;;;;;;;4.90;4.30;;;-6.10;99.90;;;;;;5083374;28;20816;-68
2022/12/13 04:53:51;;;;;;;3.07;2.60;;;-6.20;99.90;;;;;;5078209;28;20452;-68
2022/12/13 04:56:18;;;;;;;10.00;3.30;;;-6.20;1.00;;;;;;5088061;28;20507;-68
2022/12/13 04:58:47;;;;;;;8.67;5.30;;;-6.10;1.00;;;;;;5077153;28;20460;-68
2022/12/13 05:01:14;;;;;;;6.73;3.90;;;-5.80;1.00;;;;;;5077789;28;20467;-68
2022/12/13 05:03:40;;;;;;;3.73;3.53;;;-5.80;99.90;;;;;;5087460;28;20454;-68
2022/12/13 05:06:09;;;;;;;4.40;3.50;;;-5.60;99.90;;;;;;5081436;28;20437;-69
2022/12/13 05:08:37;;;;;;;1.83;1.73;;;-5.40;1.00;;;;;;5086647;28;20836;-69
2022/12/13 05:11:04;;;;;;;3.60;3.40;;;-5.50;1.00;;;;;;5071747;28;20446;-68
2022/12/13 05:13:31;;;;;;;17.53;5.87;;;-5.60;32.30;;;;;;5085766;28;20515;-68
2022/12/13 05:16:00;;;;;;;4.70;2.47;;;-5.60;99.90;;;;;;5080377;28;20448;-68
2022/12/13 05:18:28;;;;;;;5.33;4.00;;;-5.70;99.90;;;;;;5091946;28;20454;-68
2022/12/13 05:20:55;;;;;;;4.10;2.30;;;-5.60;81.20;;;;;;5085322;28;20464;-68
2022/12/13 05:23:24;;;;;;;3.63;3.33;;;-5.70;99.90;;;;;;5078603;28;20787;-68
2022/12/13 05:25:51;;;;;;;7.53;5.40;;;-5.90;1.00;;;;;;5090062;28;20449;-68
2022/12/13 05:28:18;;;;;;;4.23;3.73;;;-5.50;99.90;;;;;;5081557;28;20476;-68
2022/12/13 05:30:46;;;;;;;3.87;3.57;;;-5.70;56.00;;;;;;5080312;28;20449;-68
2022/12/13 05:33:14;;;;;;;4.27;2.27;;;-5.80;1.00;;;;;;5091716;28;20827;-68
2022/12/13 05:35:40;;;;;;;4.67;4.07;;;-5.70;99.90;;;;;;5091494;28;20449;-68
2022/12/13 05:38:07;;;;;;;3.73;3.40;;;-5.40;1.00;;;;;;5084393;28;20459;-68
2022/12/13 05:40:34;;;;;;;3.37;3.00;;;-5.40;1.00;;;;;;5078724;28;20445;-68
2022/12/13 05:43:01;;;;;;;5.43;4.57;;;-5.40;99.90;;;;;;5089935;28;20868;-70
2022/12/13 05:45:28;;;;;;;4.43;3.07;;;-5.60;1.00;;;;;;5082654;28;20475;-68
2022/12/13 05:47:55;;;;;;;4.70;4.00;;;-5.60;99.90;;;;;;5090422;28;20481;-68
2022/12/13 05:50:23;;;;;;;5.87;2.97;;;-6.00;1.00;;;;;;5082941;28;20438;-68
2022/12/13 05:52:51;;;;;;;2.73;2.50;;;-5.90;1.00;;;;;;5087378;28;20452;-68
2022/12/13 05:55:18;;;;;;;5.20;4.70;;;-5.40;99.90;;;;;;5085136;28;20453;-68
2022/12/13 05:57:45;;;;;;;3.00;2.60;;;-5.20;1.00;;;;;;5079906;28;20468;-69
2022/12/13 06:00:12;;;;;;;6.10;5.70;;;-5.20;99.90;;;;;;5074176;28;20450;-68
2022/12/13 06:02:40;;;;;;;10.33;5.50;;;-5.20;1.00;;;;;;5086833;28;20449;-69
2022/12/13 06:05:08;;;;;;;1.63;1.53;;;-5.40;1.00;;;;;;5083120;28;20908;-69
2022/12/13 06:07:37;;;;;;;3.80;1.57;;;-5.40;1.00;;;;;;5089912;28;21047;-68
2022/12/13 06:10:05;;;;;;;9.83;4.43;;;-5.70;1.00;;;;;;5083232;28;20461;-69
2022/12/13 06:12:34;;;;;;;2.80;2.60;;;-5.70;99.90;;;;;;5078224;28;20445;-68
2022/12/13 06:15:01;;;;;;;5.70;4.80;;;-5.60;1.00;;;;;;5088813;28;20448;-66
2022/12/13 06:17:30;;;;;;;4.17;3.03;;;-5.80;98.10;;;;;;5089119;28;20460;-67
2022/12/13 06:19:57;;;;;;;4.03;3.73;;;-5.90;99.90;;;;;;5090739;28;20453;-67
2022/12/13 06:22:24;;;;;;;1.70;1.60;;;-5.90;1.00;;;;;;5090940;28;20441;-71
2022/12/13 06:24:52;;;;;;;3.40;2.40;;;-5.50;99.90;;;;;;5090305;28;20445;-69
2022/12/13 06:27:19;;;;;;;9.37;5.30;;;-5.60;99.90;;;;;;5090156;28;20445;-71
2022/12/13 06:29:47;;;;;;;4.67;4.03;;;-5.90;1.00;;;;;;5087403;28;20485;-67
2022/12/13 06:32:13;;;;;;;8.77;3.67;;;-5.90;99.90;;;;;;5090570;28;20471;-67
2022/12/13 06:34:40;;;;;;;3.87;3.40;;;-5.90;99.90;;;;;;5082390;28;20441;-66
2022/12/13 06:37:10;;;;;;;5.70;5.10;;;-5.40;1.00;;;;;;5082535;28;20800;-66
2022/12/13 06:39:37;;;;;;;3.20;2.93;;;-5.30;1.00;;;;;;5087340;28;20464;-67
2022/12/13 06:42:07;;;;;;;2.93;1.87;;;-5.60;1.00;;;;;;5089909;28;20453;-68
2022/12/13 06:44:34;;;;;;;2.20;2.10;;;-5.90;99.90;;;;;;5087058;28;20935;-70
2022/12/13 06:47:01;;;;;;;5.17;2.57;;;-6.00;99.90;;;;;;5089362;28;20453;-69
2022/12/13 06:49:28;;;;;;;3.40;2.93;;;-6.10;99.90;;;;;;5087852;28;20485;-66
2022/12/13 06:51:55;;;;;;;3.87;2.83;;;-5.60;99.90;;;;;;5084804;28;20444;-66
2022/12/13 06:54:22;;;;;;;12.30;3.57;;;-5.70;1.00;;;;;;5089188;28;20475;-67
2022/12/13 06:56:48;;;;;;;3.83;3.43;;;-5.60;1.00;;;;;;5084464;28;20445;-69
2022/12/13 06:59:17;;;;;;;12.80;4.80;;;-5.70;99.90;;;;;;5089876;28;20468;-70
2022/12/13 07:01:43;;;;;;;11.20;4.73;;;-5.50;99.90;;;;;;5088978;28;20948;-69
2022/12/13 07:04:11;;;;;;;3.50;3.20;;;-5.30;1.00;;;;;;5090347;28;20804;-69
2022/12/13 07:06:38;;;;;;;5.30;3.93;;;-5.50;99.90;;;;;;5090821;28;20494;-69
2022/12/13 07:09:05;;;;;;;2.80;2.37;;;-5.70;1.00;;;;;;5080367;28;20482;-69
2022/12/13 07:11:33;;;;;;;3.00;2.60;;;-5.50;51.50;;;;;;5079326;28;20451;-69
2022/12/13 07:14:01;;;;;;;5.70;5.30;;;-5.80;99.90;;;;;;5090098;28;20512;-69
2022/12/13 07:16:29;;;;;;;2.73;2.50;;;-5.90;99.90;;;;;;5090582;28;20453;-69
2022/12/13 07:18:56;;;;;;;8.70;4.60;;;-5.70;1.00;;;;;;5090215;28;20471;-69
2022/12/13 07:21:23;;;;;;;4.33;2.83;;;-5.90;11.70;;;;;;5093225;28;20966;-69
2022/12/13 07:23:51;;;;;;;2.50;2.30;;;-5.80;1.00;;;;;;5093870;28;20468;-67
2022/12/13 07:26:19;;;;;;;4.33;2.93;;;-5.30;99.90;;;;;;5094169;28;20448;-69
2022/12/13 07:28:47;;;;;;;3.17;2.03;;;-5.20;1.00;;;;;;5094570;28;20488;-70
2022/12/13 07:31:14;;;;;;;4.93;3.13;;;-4.70;99.90;;;;;;5094220;28;20453;-70
2022/12/13 07:33:42;;;;;;;6.20;4.27;;;-4.70;99.90;;;;;;5094062;28;20449;-70
2022/12/13 07:36:13;;;;;;;5.87;3.10;;;-4.80;1.00;;;;;;5093529;28;21037;-70
2022/12/13 07:38:41;;;;;;;12.47;3.93;;;-4.80;99.90;;;;;;5093790;28;20452;-70
2022/12/13 07:41:08;;;;;;;13.40;5.40;;;-5.00;1.00;;;;;;5093171;28;20449;-70
2022/12/13 07:43:35;;;;;;;3.00;2.80;;;-5.00;1.00;;;;;;5093930;28;20445;-70
2022/12/13 07:46:04;;;;;;;3.40;2.70;;;-4.80;99.90;;;;;;5093215;28;21204;-70
2022/12/13 07:48:32;;;;;;;6.43;4.23;;;-4.80;99.90;;;;;;5093198;28;20854;-70
2022/12/13 07:51:04;;;;;;;8.03;2.73;;;-4.70;99.90;;;;;;5092840;28;20602;-70
2022/12/13 07:53:31;;;;;;;9.70;5.50;;;-4.70;99.90;;;;;;5093923;28;20459;-70
2022/12/13 07:56:00;;;;;;;3.67;1.83;;;-4.90;6.50;;;;;;5092801;28;20472;-72
2022/12/13 07:58:28;;;;;;;2.60;1.97;;;-4.90;1.00;;;;;;5093453;28;20453;-70
2022/12/13 08:00:59;;;;;;;8.90;2.63;;;-5.20;1.00;;;;;;5092418;28;20453;-70
2022/12/13 08:03:26;;;;;;;3.97;2.43;;;-5.50;99.90;;;;;;5093516;28;20449;-70
2022/12/13 08:05:59;;;;;;;2.60;2.40;;;-5.50;1.00;;;;;;5093361;28;20475;-70
2022/12/13 08:08:28;;;;;;;8.83;2.00;;;-5.60;99.90;;;;;;5089627;28;20500;-70
2022/12/13 08:10:54;;;;;;;6.83;4.10;;;-5.30;1.00;;;;;;5075686;28;20456;-70
2022/12/13 08:13:21;;;;;;;4.67;2.63;;;-5.10;99.90;;;;;;5093472;28;20449;-70
2022/12/13 08:15:48;;;;;;;3.37;2.00;;;-5.00;1.00;;;;;;5092975;28;20448;-70
2022/12/13 08:18:15;;;;;;;5.03;4.63;;;-4.60;1.00;;;;;;5093457;28;20461;-70
2022/12/13 08:20:42;;;;;;;16.07;5.77;;;-4.40;1.00;;;;;;5093382;28;20779;-70
2022/12/13 08:23:09;;;;;;;6.40;5.20;;;-4.40;1.00;;;;;;5093142;28;20887;-70
2022/12/13 08:25:37;;;;;;;4.13;3.73;;;-4.30;73.80;;;;;;5093441;28;20449;-70
2022/12/13 08:28:04;;;;;;;5.30;3.20;;;-4.10;99.90;;;;;;5092689;28;20457;-70
2022/12/13 08:30:32;;;;;;;4.63;2.70;;;-4.40;1.00;;;;;;5093152;28;20454;-70
2022/12/13 08:32:59;;;;;;;9.00;4.80;;;-4.70;1.00;;;;;;5092885;28;20448;-70
2022/12/13 08:35:27;;;;;;;6.17;5.57;;;-4.20;99.90;;;;;;5093364;28;20449;-70
2022/12/13 08:37:54;;;;;;;7.80;5.10;;;-3.80;58.00;;;;;;5092580;28;20453;-70
2022/12/13 08:40:21;;;;;;;8.30;5.60;;;-4.00;99.90;;;;;;5092505;28;20807;-70
2022/12/13 08:42:49;;;;;;;3.87;3.57;;;-3.90;1.00;;;;;;5092813;28;20445;-70
2022/12/13 08:45:16;;;;;;;11.97;5.07;;;-4.00;99.90;;;;;;5093312;28;20453;-70
2022/12/13 08:47:43;;;;;;;7.63;6.93;;;-4.00;1.00;;;;;;5093204;28;20463;-70
2022/12/13 08:50:09;;;;;;;10.23;6.53;;;-3.80;1.00;;;;;;5092181;28;20485;-70
2022/12/13 08:52:36;;;;;;;4.73;4.00;;;-3.80;1.00;;;;;;5092794;28;20445;-70
2022/12/13 08:55:03;;;;;;;4.87;3.33;;;-3.60;1.00;;;;;;5091837;28;20948;-70
2022/12/13 08:57:30;;;;;;;6.23;5.67;;;-3.40;90.90;;;;;;5093019;28;20445;-70
2022/12/13 08:59:59;;;;;;;7.00;3.00;;;-3.30;1.00;;;;;;5091940;28;21143;-70
2022/12/13 09:02:25;;;;;;;10.93;3.80;;;-3.30;99.90;;;;;;5092802;28;20536;-70
2022/12/13 09:04:54;;;;;;;10.80;3.60;;;-3.20;99.90;;;;;;5092274;28;20451;-70
2022/12/13 09:07:21;;;;;;;4.23;3.47;;;-3.10;1.00;;;;;;5092391;28;20481;-70
2022/12/13 09:09:47;;;;;;;9.73;6.70;;;-3.10;1.00;;;;;;5075852;28;21001;-70
2022/12/13 09:12:14;;;;;;;7.57;5.00;;;-3.20;54.20;;;;;;5086813;28;20449;-70
2022/12/13 09:14:41;;;;;;;8.97;5.80;;;-2.90;99.90;;;;;;5092808;28;20848;-70
2022/12/13 09:17:09;;;;;;;9.47;5.00;;;-2.80;1.00;;;;;;5091795;28;20456;-70
2022/12/13 09:19:36;;;;;;;8.77;5.53;;;-2.80;1.00;;;;;;5092354;28;20453;-70
2022/12/13 09:22:03;;;;;;;8.40;7.00;;;-2.60;99.90;;;;;;5091854;28;20449;-70
2022/12/13 09:24:30;;;;;;;5.43;4.83;;;-2.60;1.00;;;;;;5092356;28;20445;-69
2022/12/13 09:26:57;;;;;;;4.40;4.00;;;-2.50;1.00;;;;;;5091293;28;20948;-69
2022/12/13 09:29:24;;;;;;;12.63;6.70;;;-2.30;99.90;;;;;;5092061;28;21006;-70
2022/12/13 09:31:51;;;;;;;5.60;4.00;;;-2.30;99.90;;;;;;5091293;28;20456;-70
2022/12/13 09:34:19;;;;;;;9.73;5.57;;;-2.20;59.10;;;;;;5092071;28;20459;-70
2022/12/13 09:36:46;;;;;;;4.50;3.73;;;-2.10;1.00;;;;;;5092166;28;20460;-70
2022/12/13 09:39:13;;;;;;;25.03;6.13;;;-2.00;1.00;;;;;;5092365;28;20449;-70
2022/12/13 09:41:42;;;;;;;6.00;5.40;;;-1.80;1.00;;;;;;5091284;28;20544;-70
2022/12/13 09:44:17;;;;;;;5.80;5.30;;;-1.70;1.00;;;;;;5091021;28;20479;-70
2022/12/13 09:46:46;;;;;;;7.73;5.57;;;-1.70;1.00;;;;;;5091979;28;20494;-70
2022/12/13 09:49:17;;;;;;;6.03;5.53;;;-1.70;1.00;;;;;;5092149;28;20492;-70
2022/12/13 09:51:52;;;;;;;4.73;3.90;;;-1.60;1.00;;;;;;5091790;28;20452;-70
2022/12/13 09:54:21;;;;;;;8.20;3.83;;;-1.50;1.00;;;;;;5091918;28;20449;-69
2022/12/13 09:56:49;;;;;;;6.90;4.40;;;-1.50;1.00;;;;;;5091248;28;20456;-69
2022/12/13 09:59:17;;;;;;;9.73;5.27;;;-1.40;1.00;;;;;;5091868;28;20456;-69
2022/12/13 10:01:44;;;;;;;6.33;4.47;;;-1.40;1.00;;;;;;5091546;28;20441;-70
2022/12/13 10:04:13;;;;;;;5.10;3.17;;;-1.30;1.00;;;;;;5091247;28;20504;-69
2022/12/13 10:06:40;;;;;;;6.27;5.63;;;-1.30;1.00;;;;;;5091889;28;20467;-70
2022/12/13 10:09:12;;;;;;;7.13;4.00;;;-1.20;1.00;;;;;;5081094;28;20486;-69
2022/12/13 10:11:47;;;;;;;5.93;4.17;;;-1.30;1.00;;;;;;5080991;28;20442;-70
2022/12/13 10:14:20;;;;;;;4.87;4.00;;;-1.10;1.00;;;;;;5091727;28;20445;-70
2022/12/13 10:16:51;;;;;;;4.17;3.70;;;-1.00;99.90;;;;;;5091466;28;20445;-68
2022/12/13 10:19:22;;;;;;;14.77;4.90;;;-1.10;99.90;;;;;;5091612;28;20539;-70
2022/12/13 10:21:50;;;;;;;4.50;3.47;;;-1.10;99.90;;;;;;5090534;28;20449;-70
2022/12/13 10:24:24;;;;;;;4.90;4.43;;;-1.00;99.90;;;;;;5091679;28;20442;-69
2022/12/13 10:26:52;;;;;;;7.30;3.57;;;-0.90;99.90;;;;;;5090913;28;20463;-70
2022/12/13 10:29:19;;;;;;;6.57;4.10;;;-0.90;99.90;;;;;;5091387;28;20531;-70
2022/12/13 10:31:48;;;;;;;3.90;2.90;;;-0.90;99.90;;;;;;5090710;28;20445;-70
2022/12/13 10:34:21;;;;;;;11.10;3.07;;;-0.80;99.90;;;;;;5091618;28;20452;-70
2022/12/13 10:36:48;;;;;;;4.83;4.03;;;-0.90;99.90;;;;;;5090482;28;20439;-69
2022/12/13 10:39:19;;;;;;;6.00;4.17;;;-0.80;99.90;;;;;;5091701;28;20793;-69
2022/12/13 10:41:46;;;;;;;14.73;4.20;;;-0.70;99.90;;;;;;5090942;28;20825;-70
2022/12/13 10:44:23;;;;;;;7.20;5.90;;;-0.70;99.90;;;;;;5091483;28;20529;-70
2022/12/13 10:47:04;;;;;;;8.33;4.07;;;-0.80;99.90;;;;;;5090276;28;20940;-69
2022/12/13 10:49:39;;;;;;;7.63;5.10;;;-0.80;99.90;;;;;;5085068;28;20799;-70
2022/12/13 10:52:07;;;;;;;5.03;3.00;;;-0.60;99.90;;;;;;5090770;28;20493;-70
2022/12/13 10:54:38;;;;;;;5.43;3.20;;;-0.60;99.90;;;;;;5091210;28;20447;-70
2022/12/13 10:57:05;;;;;;;3.37;3.03;;;-0.60;99.90;;;;;;5094388;28;20489;-68
2022/12/13 10:59:34;;;;;;;5.47;4.90;;;-0.60;99.90;;;;;;5094913;28;20791;-70
2022/12/13 11:02:13;;;;;;;12.90;4.83;;;-0.50;99.90;;;;;;5094694;28;20810;-70
2022/12/13 11:04:40;;;;;;;4.50;3.03;;;-0.40;99.90;;;;;;5094806;28;20442;-70
2022/12/13 11:07:23;;;;;;;4.97;4.47;;;-0.30;99.90;;;;;;5094374;28;21115;-69
2022/12/13 11:09:51;;;;;;;4.07;3.70;;;-0.20;99.90;;;;;;5077967;28;20600;-70
2022/12/13 11:12:21;;;;;;;6.57;4.00;;;-0.10;99.90;;;;;;5089659;28;20446;-69
2022/12/13 11:14:52;;;;;;;6.60;3.80;;;0.00;99.90;;;;;;5094090;28;20937;-70
2022/12/13 11:17:21;;;;;;;5.40;3.20;;;0.00;99.90;;;;;;5094899;28;20459;-70
2022/12/13 11:19:51;;;;;;;4.40;3.07;;;0.00;99.90;;;;;;5093884;28;20543;-69
2022/12/13 11:22:25;;;;;;;4.73;4.03;;;-0.10;99.90;;;;;;5094521;28;20453;-70
2022/12/13 11:24:59;;;;;;;7.93;5.57;;;-0.10;99.90;;;;;;5093761;28;21007;-68
2022/12/13 11:27:52;;;;;;;9.30;4.80;;;0.10;99.90;;;;;;5094756;28;20446;-68
2022/12/13 11:30:23;;;;;;;19.70;4.77;;;0.10;99.90;;;;;;5093543;28;21004;-67
2022/12/13 11:33:11;;;;;;;12.73;4.70;;;0.20;99.90;;;;;;5094195;28;20801;-67
2022/12/13 11:35:51;;;;;;;8.47;5.20;;;0.20;99.90;;;;;;5094597;28;20444;-68
2022/12/13 11:38:27;;;;;;;9.77;5.20;;;0.20;99.90;;;;;;5094167;28;20944;-68
2022/12/13 11:40:59;;;;;;;10.17;3.50;;;0.30;99.90;;;;;;5093498;28;20466;-68
2022/12/13 11:43:31;;;;;;;7.70;5.20;;;0.40;99.90;;;;;;5094388;28;20444;-70
2022/12/13 11:46:02;;;;;;;9.00;3.57;;;0.50;99.90;;;;;;5094040;28;20448;-68
2022/12/13 11:48:38;;;;;;;11.17;4.60;;;0.50;99.90;;;;;;5093455;28;20892;-68
2022/12/13 11:51:08;;;;;;;5.40;3.77;;;0.50;99.90;;;;;;5092153;28;20471;-68
2022/12/13 11:53:48;;;;;;;7.17;5.10;;;0.50;99.90;;;;;;5092843;28;20958;-68
2022/12/13 11:56:24;;;;;;;4.20;3.60;;;0.40;99.90;;;;;;5092887;28;20451;-68
2022/12/13 11:59:00;;;;;;;11.00;4.93;;;0.40;99.90;;;;;;5092408;28;20462;-68
2022/12/13 12:01:32;;;;;;;6.10;4.10;;;0.50;99.90;;;;;;5092477;28;20444;-68
2022/12/13 12:04:05;;;;;;;14.83;5.87;;;0.50;99.90;;;;;;5092312;28;20444;-68
2022/12/13 12:06:38;;;;;;;8.20;4.33;;;0.50;99.90;;;;;;5092413;28;20440;-68
2022/12/13 12:09:10;;;;;;;14.97;5.53;;;0.50;99.90;;;;;;5082529;28;20501;-67
2022/12/13 12:11:46;;;;;;;9.57;5.33;;;0.50;99.90;;;;;;5080730;28;21270;-68
2022/12/13 12:14:17;;;;;;;7.13;4.70;;;0.50;99.90;;;;;;5092691;28;20447;-68
2022/12/13 12:16:50;;;;;;;6.47;3.67;;;0.50;99.90;;;;;;5092570;28;20451;-68
2022/12/13 12:19:19;;;;;;;6.90;3.13;;;0.50;99.90;;;;;;5092561;28;20445;-68
2022/12/13 12:22:03;;;;;;;7.40;4.60;;;0.50;99.90;;;;;;5092592;28;20452;-67
2022/12/13 12:24:46;;;;;;;4.47;2.93;;;0.60;99.90;;;;;;5092616;28;20829;-68
2022/12/13 12:27:27;;;;;;;4.33;3.93;;;0.60;99.90;;;;;;5092484;28;20462;-68
2022/12/13 12:30:10;;;;;;;9.50;4.03;;;0.70;99.90;;;;;;5091561;28;20562;-71
2022/12/13 12:32:44;;;;;;;8.73;4.00;;;0.80;99.90;;;;;;5081057;28;20447;-71
2022/12/13 12:35:32;;;;;;;11.40;4.10;;;0.90;99.90;;;;;;5086717;28;20441;-70
2022/12/13 12:38:12;;;;;;;9.40;4.70;;;0.90;99.90;;;;;;5086530;28;20497;-68
2022/12/13 12:41:14;;;;;;;11.90;3.83;;;0.70;99.90;;;;;;5083182;28;20451;-67
2022/12/13 12:43:44;;;;;;;14.53;3.97;;;0.80;99.90;;;;;;5067814;28;20451;-68
2022/12/13 12:46:48;;;;;;;7.30;4.93;;;0.80;99.90;;;;;;5086933;28;20456;-68
2022/12/13 12:49:30;;;;;;;4.43;4.03;;;0.80;99.90;;;;;;5052159;28;1068620;-67
2022/12/13 12:52:07;;;;;;;5.53;3.63;;;0.80;99.90;;;;;;5090505;28;20198;-74
2022/12/13 12:54:43;;;;;;;9.00;4.50;;;0.80;99.90;;;;;;5091619;28;20444;-69
2022/12/13 12:57:18;;;;;;;4.30;3.07;;;0.80;99.90;;;;;;5080398;28;21100;-69
2022/12/13 12:59:57;;;;;;;8.27;5.10;;;0.70;99.90;;;;;;5084369;28;20960;-69
2022/12/13 13:02:31;;;;;;;6.60;3.53;;;0.60;99.90;;;;;;5091161;28;20934;-69
2022/12/13 13:05:03;;;;;;;8.43;4.40;;;0.70;99.90;;;;;;5088788;28;20451;-72
2022/12/13 13:07:36;;;;;;;7.87;4.23;;;0.70;99.90;;;;;;5086367;28;20440;-69
2022/12/13 13:10:05;;;;;;;7.37;5.00;;;0.80;99.90;;;;;;5080770;28;20464;-68